sensor_id;sensor_type;location;lat;lon;timestamp;P1;durP1;ratioP1;P2;durP2;ratioP2
10142;SDS011;5112;54.088;13.446;2023-04-05T00:04:31;4.93;;;4.07;;
10142;SDS011;5112;54.088;13.446;2023-04-05T00:14:35;6.43;;;5.00;;
10142;SDS011;5112;54.088;13.446;2023-04-05T00:24:37;8.30;;;5.37;;
10142;SDS011;5112;54.088;13.446;2023-04-05T00:34:43;8.10;;;5.83;;
10142;SDS011;5112;54.088;13.446;2023-04-05T00:44:45;7.30;;;5.40;;
10142;SDS011;5112;54.088;13.446;2023-04-05T00:54:48;9.17;;;5.90;;
10142;SDS011;5112;54.088;13.446;2023-04-05T01:04:53;7.17;;;5.77;;
10142;SDS011;5112;54.088;13.446;2023-04-05T01:15:01;7.73;;;4.67;;
10142;SDS011;5112;54.088;13.446;2023-04-05T01:25:08;6.93;;;4.70;;
10142;SDS011;5112;54.088;13.446;2023-04-05T01:35:26;7.63;;;5.43;;
10142;SDS011;5112;54.088;13.446;2023-04-05T01:45:33;7.27;;;4.83;;
10142;SDS011;5112;54.088;13.446;2023-04-05T01:55:36;7.03;;;5.20;;
10142;SDS011;5112;54.088;13.446;2023-04-05T02:05:38;7.57;;;5.70;;
10142;SDS011;5112;54.088;13.446;2023-04-05T02:15:41;8.27;;;5.57;;
10142;SDS011;5112;54.088;13.446;2023-04-05T02:25:48;10.13;;;5.40;;
10142;SDS011;5112;54.088;13.446;2023-04-05T02:35:51;8.27;;;5.97;;
10142;SDS011;5112;54.088;13.446;2023-04-05T02:45:53;10.30;;;6.37;;
10142;SDS011;5112;54.088;13.446;2023-04-05T02:55:56;6.87;;;5.67;;
10142;SDS011;5112;54.088;13.446;2023-04-05T03:05:59;5.17;;;4.40;;
10142;SDS011;5112;54.088;13.446;2023-04-05T03:16:07;3.93;;;2.93;;
10142;SDS011;5112;54.088;13.446;2023-04-05T03:26:09;4.27;;;2.80;;
10142;SDS011;5112;54.088;13.446;2023-04-05T03:36:12;5.17;;;3.07;;
10142;SDS011;5112;54.088;13.446;2023-04-05T03:46:15;2.60;;;2.40;;
10142;SDS011;5112;54.088;13.446;2023-04-05T03:56:18;2.30;;;1.83;;
10142;SDS011;5112;54.088;13.446;2023-04-05T04:06:20;2.97;;;1.60;;
10142;SDS011;5112;54.088;13.446;2023-04-05T04:16:27;3.20;;;1.80;;
10142;SDS011;5112;54.088;13.446;2023-04-05T04:26:29;3.37;;;1.00;;
10142;SDS011;5112;54.088;13.446;2023-04-05T04:36:38;1.20;;;1.10;;
10142;SDS011;5112;54.088;13.446;2023-04-05T04:46:41;2.20;;;1.30;;
10142;SDS011;5112;54.088;13.446;2023-04-05T04:56:44;2.57;;;1.53;;
10142;SDS011;5112;54.088;13.446;2023-04-05T05:06:48;2.27;;;1.10;;
10142;SDS011;5112;54.088;13.446;2023-04-05T05:16:52;2.97;;;1.40;;
10142;SDS011;5112;54.088;13.446;2023-04-05T05:26:57;1.47;;;1.37;;
10142;SDS011;5112;54.088;13.446;2023-04-05T05:37:00;1.40;;;1.30;;
10142;SDS011;5112;54.088;13.446;2023-04-05T05:47:02;1.40;;;1.30;;
10142;SDS011;5112;54.088;13.446;2023-04-05T06:07:16;2.00;;;1.53;;
10142;SDS011;5112;54.088;13.446;2023-04-05T06:17:18;2.17;;;1.23;;
10142;SDS011;5112;54.088;13.446;2023-04-05T06:27:21;1.20;;;1.03;;
10142;SDS011;5112;54.088;13.446;2023-04-05T06:37:23;2.70;;;2.00;;
10142;SDS011;5112;54.088;13.446;2023-04-05T06:47:26;2.63;;;1.60;;
10142;SDS011;5112;54.088;13.446;2023-04-05T06:57:27;2.80;;;1.40;;
10142;SDS011;5112;54.088;13.446;2023-04-05T07:07:30;3.10;;;1.23;;
10142;SDS011;5112;54.088;13.446;2023-04-05T07:17:32;1.23;;;1.13;;
10142;SDS011;5112;54.088;13.446;2023-04-05T07:27:35;2.17;;;1.20;;
10142;SDS011;5112;54.088;13.446;2023-04-05T07:37:38;1.93;;;1.50;;
10142;SDS011;5112;54.088;13.446;2023-04-05T07:47:41;1.47;;;1.20;;
10142;SDS011;5112;54.088;13.446;2023-04-05T07:57:43;2.27;;;1.40;;
10142;SDS011;5112;54.088;13.446;2023-04-05T08:07:46;1.53;;;1.43;;
10142;SDS011;5112;54.088;13.446;2023-04-05T08:17:47;1.47;;;1.37;;
10142;SDS011;5112;54.088;13.446;2023-04-05T08:27:50;2.33;;;1.50;;
10142;SDS011;5112;54.088;13.446;2023-04-05T08:37:52;1.80;;;1.70;;
10142;SDS011;5112;54.088;13.446;2023-04-05T08:47:55;3.37;;;1.40;;
10142;SDS011;5112;54.088;13.446;2023-04-05T08:57:57;1.77;;;1.23;;
10142;SDS011;5112;54.088;13.446;2023-04-05T09:08:05;1.50;;;1.30;;
10142;SDS011;5112;54.088;13.446;2023-04-05T09:18:07;2.67;;;1.40;;
10142;SDS011;5112;54.088;13.446;2023-04-05T09:28:10;1.50;;;1.40;;
10142;SDS011;5112;54.088;13.446;2023-04-05T09:38:12;2.43;;;1.23;;
10142;SDS011;5112;54.088;13.446;2023-04-05T09:48:15;2.60;;;1.30;;
10142;SDS011;5112;54.088;13.446;2023-04-05T09:58:17;3.13;;;1.50;;
10142;SDS011;5112;54.088;13.446;2023-04-05T10:08:21;1.63;;;1.53;;
10142;SDS011;5112;54.088;13.446;2023-04-05T10:18:26;1.43;;;1.33;;
10142;SDS011;5112;54.088;13.446;2023-04-05T10:28:41;1.37;;;1.20;;
10142;SDS011;5112;54.088;13.446;2023-04-05T10:38:47;2.17;;;1.27;;
10142;SDS011;5112;54.088;13.446;2023-04-05T10:49:03;2.47;;;1.90;;
10142;SDS011;5112;54.088;13.446;2023-04-05T10:59:12;2.13;;;1.40;;
10142;SDS011;5112;54.088;13.446;2023-04-05T11:09:17;1.70;;;1.07;;
10142;SDS011;5112;54.088;13.446;2023-04-05T11:19:19;2.37;;;1.80;;
10142;SDS011;5112;54.088;13.446;2023-04-05T11:29:46;3.13;;;2.00;;
10142;SDS011;5112;54.088;13.446;2023-04-05T11:39:52;2.03;;;1.53;;
10142;SDS011;5112;54.088;13.446;2023-04-05T11:50:29;2.87;;;1.60;;
10142;SDS011;5112;54.088;13.446;2023-04-05T12:00:31;2.33;;;1.77;;
10142;SDS011;5112;54.088;13.446;2023-04-05T12:10:34;1.60;;;1.40;;
10142;SDS011;5112;54.088;13.446;2023-04-05T12:20:35;1.60;;;1.50;;
10142;SDS011;5112;54.088;13.446;2023-04-05T12:30:48;2.53;;;1.83;;
10142;SDS011;5112;54.088;13.446;2023-04-05T12:40:50;2.27;;;1.50;;
10142;SDS011;5112;54.088;13.446;2023-04-05T12:50:54;1.47;;;1.33;;
10142;SDS011;5112;54.088;13.446;2023-04-05T13:00:55;2.23;;;1.57;;
10142;SDS011;5112;54.088;13.446;2023-04-05T13:10:59;3.80;;;1.53;;
10142;SDS011;5112;54.088;13.446;2023-04-05T13:21:01;2.40;;;1.87;;
10142;SDS011;5112;54.088;13.446;2023-04-05T13:31:07;2.13;;;1.93;;
10142;SDS011;5112;54.088;13.446;2023-04-05T13:41:09;3.00;;;1.87;;
10142;SDS011;5112;54.088;13.446;2023-04-05T13:51:12;1.60;;;1.37;;
10142;SDS011;5112;54.088;13.446;2023-04-05T14:01:14;3.00;;;1.70;;
10142;SDS011;5112;54.088;13.446;2023-04-05T14:11:17;2.73;;;1.70;;
10142;SDS011;5112;54.088;13.446;2023-04-05T14:21:19;2.17;;;1.50;;
10142;SDS011;5112;54.088;13.446;2023-04-05T14:31:22;2.53;;;1.93;;
10142;SDS011;5112;54.088;13.446;2023-04-05T14:41:25;3.23;;;1.53;;
10142;SDS011;5112;54.088;13.446;2023-04-05T14:51:28;2.13;;;1.70;;
10142;SDS011;5112;54.088;13.446;2023-04-05T15:01:30;1.83;;;1.73;;
10142;SDS011;5112;54.088;13.446;2023-04-05T15:11:33;2.10;;;1.47;;
10142;SDS011;5112;54.088;13.446;2023-04-05T15:21:38;3.67;;;1.67;;
10142;SDS011;5112;54.088;13.446;2023-04-05T15:31:41;4.20;;;2.10;;
10142;SDS011;5112;54.088;13.446;2023-04-05T15:41:43;3.17;;;2.03;;
10142;SDS011;5112;54.088;13.446;2023-04-05T15:51:46;2.07;;;1.60;;
10142;SDS011;5112;54.088;13.446;2023-04-05T16:01:47;2.90;;;1.87;;
10142;SDS011;5112;54.088;13.446;2023-04-05T16:11:50;1.63;;;1.53;;
10142;SDS011;5112;54.088;13.446;2023-04-05T16:21:52;1.80;;;1.70;;
10142;SDS011;5112;54.088;13.446;2023-04-05T16:31:55;1.57;;;1.47;;
10142;SDS011;5112;54.088;13.446;2023-04-05T16:41:57;3.13;;;1.70;;
10142;SDS011;5112;54.088;13.446;2023-04-05T16:52:00;3.43;;;1.93;;
10142;SDS011;5112;54.088;13.446;2023-04-05T17:02:02;2.67;;;1.63;;
10142;SDS011;5112;54.088;13.446;2023-04-05T17:12:05;2.37;;;2.17;;
10142;SDS011;5112;54.088;13.446;2023-04-05T17:22:07;3.63;;;2.60;;
10142;SDS011;5112;54.088;13.446;2023-04-05T17:32:10;6.77;;;4.13;;
10142;SDS011;5112;54.088;13.446;2023-04-05T17:42:12;4.07;;;2.70;;
10142;SDS011;5112;54.088;13.446;2023-04-05T17:52:15;2.93;;;2.73;;
10142;SDS011;5112;54.088;13.446;2023-04-05T18:02:16;4.50;;;3.27;;
10142;SDS011;5112;54.088;13.446;2023-04-05T18:12:19;3.28;;;2.92;;
10142;SDS011;5112;54.088;13.446;2023-04-05T18:22:21;2.25;;;2.05;;
10142;SDS011;5112;54.088;13.446;2023-04-05T18:32:24;3.17;;;2.25;;
10142;SDS011;5112;54.088;13.446;2023-04-05T18:42:26;2.30;;;2.10;;
10142;SDS011;5112;54.088;13.446;2023-04-05T18:52:29;3.13;;;1.80;;
10142;SDS011;5112;54.088;13.446;2023-04-05T19:02:33;4.30;;;2.27;;
10142;SDS011;5112;54.088;13.446;2023-04-05T19:12:36;2.33;;;2.13;;
10142;SDS011;5112;54.088;13.446;2023-04-05T19:22:37;3.10;;;2.07;;
10142;SDS011;5112;54.088;13.446;2023-04-05T19:32:40;3.30;;;2.60;;
10142;SDS011;5112;54.088;13.446;2023-04-05T19:42:42;2.57;;;2.00;;
10142;SDS011;5112;54.088;13.446;2023-04-05T19:52:47;2.93;;;2.70;;
10142;SDS011;5112;54.088;13.446;2023-04-05T20:02:50;2.77;;;2.57;;
10142;SDS011;5112;54.088;13.446;2023-04-05T20:12:54;4.73;;;2.50;;
10142;SDS011;5112;54.088;13.446;2023-04-05T20:22:56;2.83;;;2.60;;
10142;SDS011;5112;54.088;13.446;2023-04-05T20:32:59;4.90;;;3.10;;
10142;SDS011;5112;54.088;13.446;2023-04-05T20:43:01;4.10;;;3.27;;
10142;SDS011;5112;54.088;13.446;2023-04-05T20:53:04;3.27;;;2.97;;
10142;SDS011;5112;54.088;13.446;2023-04-05T21:03:06;3.50;;;3.10;;
10142;SDS011;5112;54.088;13.446;2023-04-05T21:13:09;5.07;;;3.63;;
10142;SDS011;5112;54.088;13.446;2023-04-05T21:23:10;3.73;;;3.40;;
10142;SDS011;5112;54.088;13.446;2023-04-05T21:33:13;4.60;;;4.20;;
10142;SDS011;5112;54.088;13.446;2023-04-05T21:43:15;4.50;;;3.83;;
10142;SDS011;5112;54.088;13.446;2023-04-05T21:53:18;4.17;;;3.77;;
10142;SDS011;5112;54.088;13.446;2023-04-05T22:03:20;6.07;;;3.80;;
10142;SDS011;5112;54.088;13.446;2023-04-05T22:13:23;3.87;;;3.47;;
10142;SDS011;5112;54.088;13.446;2023-04-05T22:23:24;4.07;;;3.40;;
10142;SDS011;5112;54.088;13.446;2023-04-05T22:33:27;5.17;;;4.67;;
10142;SDS011;5112;54.088;13.446;2023-04-05T22:43:29;4.00;;;3.60;;
10142;SDS011;5112;54.088;13.446;2023-04-05T22:53:32;3.47;;;3.17;;
10142;SDS011;5112;54.088;13.446;2023-04-05T23:03:34;2.93;;;2.73;;
10142;SDS011;5112;54.088;13.446;2023-04-05T23:13:36;3.20;;;2.90;;
10142;SDS011;5112;54.088;13.446;2023-04-05T23:23:38;4.50;;;3.20;;
10142;SDS011;5112;54.088;13.446;2023-04-05T23:33:41;4.93;;;3.60;;
10142;SDS011;5112;54.088;13.446;2023-04-05T23:43:43;4.43;;;3.03;;
10142;SDS011;5112;54.088;13.446;2023-04-05T23:53:46;4.60;;;3.53;;
